Latest Weather Observations for Biloela

IDQ60801

Issued at 10:05 am EST Tuesday 25 November 2014 (issued every 30 minutes, with the page automatically refreshed every 10 minutes)

About weather observations | Map of weather stations | Latest weather observations for QLD | Other Formats
Station Details ID: 039089 Name: THANGOOL AIRPORT Lat: -24.49 Lon: 150.57 Height: 193.1 m
Data from the previous 72 hours. | See also: Recent months at Biloela
Date/Time
EST
Temp
°C
App
Temp
°C
Dew
Point
Rel
Hum
%
Delta-T
°C
Wind Press
QNH
hPa
Press
MSL
hPa
Rain
since 9 am
mm
Dir
 
Spd
km/h
Gust
km/h
Spd
kts
Gust
kts
25/10:00am 29.4 28.9 15.9 44 8.4 NNW 13 20 7 11 1016.0 - 0.0
25/09:30am 28.0 28.3 16.0 48 7.4 WNW 9 15 5 8 1016.3 - 0.0
25/09:00am 26.9 27.0 16.5 53 6.5 N 11 17 6 9 1016.5 1015.7 0.0
25/08:30am 26.0 26.6 17.6 60 5.3 N 11 17 6 9 1016.8 - 0.0
25/08:00am 26.7 27.7 18.6 61 5.2 NW 11 17 6 9 1016.7 - 0.0
25/07:30am 24.2 25.6 17.4 65 4.3 NE 6 9 3 5 1016.6 - 0.0
25/07:00am 22.8 24.5 18.1 75 3.0 S 6 7 3 4 1016.6 - 0.0
25/06:30am 20.4 21.2 17.2 82 2.0 S 9 13 5 7 1016.4 - 0.0
25/06:00am 19.0 19.7 17.0 88 1.2 E 9 11 5 6 1015.8 1014.9 0.0
25/05:30am 17.1 17.4 16.1 94 0.6 E 9 9 5 5 1015.4 - 0.0
25/05:00am 16.6 18.0 15.5 93 0.6 SE 2 9 1 5 1015.1 - 0.0
25/04:30am 16.6 17.2 15.3 92 0.8 ESE 6 6 3 3 1015.0 - 0.0
25/04:00am 16.9 18.3 15.4 91 0.9 NW 2 7 1 4 1014.7 - 0.0
25/03:30am 17.4 19.3 15.7 90 1.0 CALM 0 0 0 0 1014.9 - 0.0
25/03:00am 17.7 19.7 16.0 90 1.0 CALM 0 0 0 0 1014.8 1013.9 0.0
25/02:30am 18.0 20.0 16.0 88 1.2 CALM 0 0 0 0 1014.9 - 0.0
25/02:00am 18.8 19.7 16.0 84 1.7 WNW 6 6 3 3 1014.9 - 0.0
25/01:30am 19.9 21.0 16.7 82 1.9 WNW 6 6 3 3 1014.9 - 0.0
25/01:00am 20.6 22.7 17.2 81 2.1 W 2 7 1 4 1014.9 - 0.0
25/12:30am 20.9 22.2 17.5 81 2.1 W 7 9 4 5 1015.2 - 0.0
25/12:00am 20.9 23.0 17.3 80 2.2 S 2 6 1 3 1015.4 1014.5 0.0
 
Date/Time
EST
Temp
°C
App
Temp
°C
Dew
Point
Rel
Hum
%
Delta-T
°C
Wind Press
QNH
hPa
Press
MSL
hPa
Rain
since 9 am
mm
Dir
 
Spd
km/h
Gust
km/h
Spd
kts
Gust
kts
24/11:30pm 21.3 23.3 16.9 76 2.7 SSE 2 7 1 4 1015.7 - 0.0
24/11:00pm 22.4 23.1 17.1 72 3.3 NE 9 20 5 11 1015.8 - 0.0
24/10:30pm 22.8 22.8 17.3 71 3.4 NE 13 20 7 11 1015.8 - 0.0
24/10:00pm 23.1 22.8 17.3 70 3.6 NE 15 20 8 11 1015.9 - 0.0
24/09:30pm 23.3 23.3 17.1 68 3.9 NNE 13 20 7 11 1015.8 - 0.0
24/09:00pm 23.7 23.7 17.2 67 4.0 NE 13 22 7 12 1015.6 1014.7 0.0
24/08:30pm 24.2 24.3 17.4 65 4.3 NNE 13 22 7 12 1015.3 - 0.0
24/08:00pm 24.6 23.3 17.3 64 4.6 NE 20 32 11 17 1014.6 - 0.0
24/07:30pm 25.2 23.3 16.6 59 5.3 NE 22 30 12 16 1014.1 - 0.0
24/07:00pm 25.9 24.0 16.7 57 5.7 NNE 22 33 12 18 1013.8 - 0.0
24/06:30pm 27.1 25.2 16.7 53 6.5 NNE 22 32 12 17 1013.2 - 0.0
24/06:00pm 28.3 26.2 16.2 47 7.5 NNE 22 32 12 17 1012.7 1011.8 0.0
24/05:30pm 29.7 27.7 15.4 42 8.9 NNE 20 30 11 16 1012.2 - 0.0
24/05:00pm 30.6 28.5 15.1 39 9.6 NNE 20 28 11 15 1012.0 - 0.0
24/04:30pm 31.4 28.8 15.0 37 10.2 NNE 22 32 12 17 1011.7 - 0.0
24/04:00pm 32.1 30.0 14.7 35 10.8 NNE 19 28 10 15 1011.8 - 0.0
24/03:30pm 32.6 30.5 14.7 34 11.1 N 19 32 10 17 1012.1 - 0.0
24/03:00pm 32.5 30.6 15.1 35 10.8 N 19 30 10 16 1012.5 1011.6 0.0
24/02:30pm 33.0 30.7 14.6 33 11.4 NE 20 24 11 13 1012.9 - 0.0
24/02:00pm 32.0 29.5 14.2 34 10.9 NNE 20 35 11 19 1013.3 - 0.0
24/01:30pm 31.9 30.1 14.5 34 10.7 N 17 28 9 15 1013.9 - 0.0
24/01:00pm 32.3 30.0 14.0 33 11.2 ENE 19 24 10 13 1014.3 - 0.0
24/12:30pm 32.2 30.4 16.1 38 10.2 N 20 30 11 16 1014.9 - 0.0
24/12:00pm 31.1 29.7 15.5 39 9.7 NNE 17 28 9 15 1015.5 1014.6 0.0
24/11:30am 30.3 29.7 15.6 41 9.2 N 13 19 7 10 1016.0 - 0.0
24/11:00am 29.5 28.9 15.6 43 8.6 ENE 13 22 7 12 1016.5 - 0.0
24/10:30am 29.7 28.1 15.0 40 9.0 NE 17 26 9 14 1016.9 - 0.0
24/10:00am 29.7 29.5 15.8 43 8.7 NNE 11 17 6 9 1017.3 - 0.0
24/09:30am 28.5 27.7 16.1 47 7.7 N 15 24 8 13 1017.6 - 0.0
24/09:00am 27.3 26.2 16.3 51 6.8 N 17 22 9 12 1018.0 1017.1 0.0
24/08:30am 26.8 27.4 17.6 57 5.8 E 11 15 6 8 1018.1 - 0.0
24/08:00am 25.4 27.1 18.1 64 4.6 SE 6 13 3 7 1018.2 - 0.0
24/07:30am 23.4 24.9 18.1 72 3.3 ESE 7 9 4 5 1018.2 - 0.0
24/07:00am 20.4 21.9 17.6 84 1.7 E 6 7 3 4 1018.1 - 0.0
24/06:30am 19.0 20.0 16.8 87 1.3 E 7 9 4 5 1018.0 - 0.0
24/06:00am 18.1 19.3 16.9 93 0.7 E 6 7 3 4 1017.6 1016.8 0.0
24/05:30am 17.2 17.9 16.1 93 0.7 E 7 9 4 5 1017.3 - 0.0
24/05:00am 16.6 17.0 15.3 92 0.8 E 7 9 4 5 1016.8 - 0.0
24/04:30am 16.6 18.2 15.0 90 0.9 CALM 0 0 0 0 1016.6 - 0.0
24/04:00am 17.3 19.2 15.8 91 0.9 CALM 0 0 0 0 1016.7 - 0.0
24/03:30am 18.2 19.3 16.5 90 1.0 E 6 7 3 4 1016.6 - 0.0
24/03:00am 18.0 19.8 15.6 86 1.4 CALM 0 0 0 0 1016.6 1015.8 0.0
24/02:30am 18.9 21.0 16.3 85 1.6 CALM 0 0 0 0 1016.6 - 0.0
24/02:00am 19.1 21.1 16.0 82 1.9 CALM 0 0 0 0 1016.3 - 0.0
24/01:30am 20.4 21.3 16.0 76 2.7 NW 6 7 3 4 1016.2 - 0.0
24/01:00am 21.6 22.4 17.2 76 2.7 NNE 9 13 5 7 1015.9 - 0.0
24/12:30am 21.5 21.8 17.1 76 2.7 NE 11 15 6 8 1016.1 - 0.0
24/12:00am 22.0 23.2 17.4 75 2.9 NE 7 13 4 7 1016.4 1015.5 0.0
 
Date/Time
EST
Temp
°C
App
Temp
°C
Dew
Point
Rel
Hum
%
Delta-T
°C
Wind Press
QNH
hPa
Press
MSL
hPa
Rain
since 9 am
mm
Dir
 
Spd
km/h
Gust
km/h
Spd
kts
Gust
kts
23/11:30pm 22.7 23.3 17.8 74 3.1 NNE 11 19 6 10 1016.5 - 0.0
23/11:00pm 22.6 22.7 17.5 73 3.2 NNE 13 20 7 11 1016.6 - 0.0
23/10:30pm 22.7 23.7 17.8 74 3.1 NE 9 15 5 8 1016.6 - 0.0
23/10:00pm 23.0 23.7 17.9 73 3.2 NNE 11 17 6 9 1016.5 - 0.0
23/09:30pm 23.3 23.3 18.0 72 3.3 NNE 15 20 8 11 1016.4 - 0.0
23/09:00pm 23.8 23.5 18.2 71 3.5 NNE 17 26 9 14 1016.1 1015.2 0.0
23/08:30pm 24.4 24.6 18.6 70 3.7 NNE 15 24 8 13 1015.8 - 0.0
23/08:00pm 25.0 26.0 18.7 68 4.0 NNE 11 20 6 11 1015.8 - 0.0
23/07:30pm 25.9 26.4 18.3 63 4.9 NNE 13 19 7 10 1015.2 - 0.0
23/07:00pm 26.8 27.1 17.8 57 5.7 NNE 13 22 7 12 1014.9 - 0.0
23/06:30pm 28.2 27.9 17.4 52 6.9 NE 15 26 8 14 1014.3 - 0.0
23/06:00pm 29.8 28.5 17.3 47 8.0 NNE 20 30 11 16 1013.4 1012.5 0.0
23/05:30pm 31.5 29.3 17.0 41 9.2 NE 24 32 13 17 1012.8 - 0.0
23/05:00pm 33.2 31.5 15.7 35 11.0 N 19 28 10 15 1012.7 - 0.0
23/04:30pm 33.6 32.4 16.0 34 11.1 NNE 17 24 9 13 1012.7 - 0.0
23/04:00pm 34.5 33.8 16.4 34 11.6 N 15 28 8 15 1012.9 - 0.0
23/03:30pm 33.9 32.8 15.4 33 11.6 N 15 22 8 12 1013.2 - 0.0
23/03:00pm 34.1 33.3 16.0 34 11.5 N 15 24 8 13 1013.7 1012.8 0.0
23/02:30pm 35.0 33.5 16.8 34 11.7 N 20 28 11 15 1014.0 - 0.0
23/02:00pm 33.8 32.6 16.2 35 11.2 N 17 26 9 14 1014.4 - 0.0
23/01:30pm 33.9 32.6 15.8 33 11.4 N 17 30 9 16 1014.8 - 0.0
23/01:00pm 33.5 33.7 16.8 36 10.7 NNE 11 22 6 12 1015.2 - 0.0
23/12:30pm 32.3 32.1 16.6 39 10.0 N 13 20 7 11 1015.7 - 0.0
23/12:00pm 32.5 33.3 17.2 40 9.8 SE 9 20 5 11 1016.2 1015.3 0.0
23/11:30am 31.5 32.3 17.4 43 9.0 W 9 20 5 11 1016.8 - 0.0
23/11:00am 29.2 28.9 16.4 46 8.0 NNW 13 19 7 10 1017.3 - 0.0
23/10:30am 30.0 30.6 17.8 48 7.8 N 11 24 6 13 1017.6 - 0.0
23/10:00am 29.6 29.7 17.4 47 7.8 ENE 13 20 7 11 1018.0 - 0.0
23/09:30am 27.7 27.6 16.9 51 6.8 NNE 13 17 7 9 1018.2 - 0.0
23/09:00am 27.5 28.9 17.9 55 6.1 NNE 7 13 4 7 1018.4 1017.5 0.0
23/08:30am 27.1 28.0 18.4 59 5.6 N 11 17 6 9 1018.4 - 0.0
23/08:00am 27.1 28.0 18.4 59 5.6 NNE 11 17 6 9 1018.5 - 0.0
23/07:30am 26.0 26.7 18.9 65 4.6 NNE 13 17 7 9 1018.4 - 0.0
23/07:00am 25.4 26.9 19.8 71 3.6 NNE 11 15 6 8 1018.2 - 0.0
23/06:30am 24.3 25.6 19.4 74 3.2 N 11 13 6 7 1017.4 - 0.0
23/06:00am 23.6 25.3 20.1 81 2.3 N 11 17 6 9 1017.0 1016.2 0.0
23/05:30am 21.8 23.4 19.2 85 1.7 N 9 9 5 5 1016.6 - 0.0
23/05:00am 21.2 22.9 18.4 84 1.8 N 7 11 4 6 1016.1 - 0.0
23/04:30am 22.0 24.1 19.4 85 1.7 NNW 7 9 4 5 1015.8 - 0.0
23/04:00am 22.1 23.9 18.7 81 2.2 N 7 9 4 5 1015.2 - 0.0
23/03:30am 22.9 24.9 19.1 79 2.4 N 7 11 4 6 1015.1 - 0.0
23/03:00am 24.1 25.2 19.6 76 2.9 N 13 19 7 10 1015.0 1014.1 0.0
23/02:30am 23.9 25.2 19.2 75 3.0 N 11 19 6 10 1014.9 - 0.0
23/02:00am 24.0 25.4 19.5 76 2.9 NE 11 17 6 9 1015.0 - 0.0
23/01:30am 23.9 25.7 19.6 77 2.8 NNE 9 13 5 7 1015.2 - 0.0
23/01:00am 23.9 26.1 19.6 77 2.8 N 7 11 4 6 1015.3 - 0.0
23/12:30am 23.9 25.8 19.8 78 2.7 N 9 13 5 7 1015.6 - 0.0
23/12:00am 24.1 26.4 19.8 77 2.8 N 7 13 4 7 1015.8 1014.9 0.0
 
Date/Time
EST
Temp
°C
App
Temp
°C
Dew
Point
Rel
Hum
%
Delta-T
°C
Wind Press
QNH
hPa
Press
MSL
hPa
Rain
since 9 am
mm
Dir
 
Spd
km/h
Gust
km/h
Spd
kts
Gust
kts
22/11:30pm 24.1 26.5 19.6 76 2.9 N 6 9 3 5 1016.0 - 0.0
22/11:00pm 24.5 26.5 20.0 76 2.9 NNE 9 13 5 7 1016.0 - 0.0
22/10:30pm 24.8 26.0 19.8 74 3.3 NNE 13 17 7 9 1015.9 - 0.0
22/10:00pm 25.3 26.9 19.9 72 3.5 NE 11 19 6 10 1015.7 - 0.0
22/09:30pm 25.5 27.2 20.1 72 3.5 NNE 11 20 6 11 1015.3 - 0.0
22/09:00pm 25.9 28.3 20.0 70 3.9 N 7 17 4 9 1014.9 1014.0 0.0
22/08:30pm 26.4 26.3 20.0 68 4.2 NE 20 32 11 17 1014.3 - 0.0
22/08:00pm 27.0 26.9 19.9 65 4.7 NE 20 28 11 15 1014.0 - 0.0
22/07:30pm 27.6 27.5 19.9 63 5.1 NNE 20 28 11 15 1013.8 - 0.0
22/07:00pm 28.4 27.9 19.9 60 5.6 NE 22 35 12 19 1013.1 - 0.0
22/06:30pm 29.7 28.7 19.7 55 6.6 NNE 24 33 13 18 1012.5 - 0.0
22/06:00pm 30.9 30.2 19.6 51 7.5 NNE 22 35 12 19 1012.1 1011.3 0.0
22/05:30pm 32.5 31.9 19.7 46 8.5 NNE 22 32 12 17 1011.6 - 0.0
22/05:00pm 34.0 33.6 18.1 39 10.4 NNE 17 24 9 13 1011.2 - 0.0
22/04:30pm 34.7 34.6 17.9 37 11.0 N 15 26 8 14 1010.9 - 0.0
22/04:00pm 34.6 35.0 18.2 37 10.7 N 13 19 7 10 1011.0 - 0.0
22/03:30pm 35.0 36.1 18.1 36 11.1 NNE 9 19 5 10 1011.3 - 0.0
22/03:00pm 34.4 35.0 17.6 37 10.9 NE 11 20 6 11 1011.7 1010.8 0.0
22/02:30pm 34.3 35.4 17.9 37 10.7 NW 9 22 5 12 1012.1 - 0.0
22/02:00pm 34.2 34.7 18.3 39 10.4 WNW 13 20 7 11 1012.7 - 0.0
22/01:30pm 35.0 36.5 19.8 41 10.2 NW 11 15 6 8 1013.1 - 0.0
22/01:00pm 33.8 33.7 17.9 38 10.3 N 15 20 8 11 1013.7 - 0.0
22/12:30pm 33.6 32.8 18.5 40 9.9 NW 20 28 11 15 1014.2 - 0.0
22/12:00pm 32.9 31.9 17.9 41 9.7 NNW 20 26 11 14 1014.7 1013.8 0.0
22/11:30am 31.8 32.9 18.0 43 8.9 W 9 15 5 8 1015.4 - 0.0
22/11:00am 31.5 32.1 18.5 46 8.5 NW 13 28 7 15 1016.0 - 0.0
22/10:30am 31.0 30.8 18.4 47 8.2 NNW 17 26 9 14 1016.1 - 0.0

Other Formats:

Comma delimited format used in spreadsheet applications
http://www.bom.gov.au/fwo/IDQ60801/IDQ60801.94376.axf

JavaScript Object Notation format (JSON) in row-major order
http://www.bom.gov.au/fwo/IDQ60801/IDQ60801.94376.json